createdAt,value
2023-11-25T00:00:14.579Z,19.08
2023-11-25T00:03:02.686Z,11.02
2023-11-25T00:05:52.108Z,11.95
2023-11-25T00:08:40.140Z,9.43
2023-11-25T00:11:30.097Z,10.18
2023-11-25T00:14:18.152Z,9.40
2023-11-25T00:17:06.418Z,9.05
2023-11-25T00:19:54.471Z,5.32
2023-11-25T00:22:43.710Z,8.70
2023-11-25T00:25:34.565Z,10.90
2023-11-25T00:28:24.143Z,10.93
2023-11-25T00:31:12.173Z,11.05
2023-11-25T00:33:59.986Z,8.32
2023-11-25T00:36:48.129Z,7.07
2023-11-25T00:39:37.667Z,7.97
2023-11-25T00:42:25.737Z,6.00
2023-11-25T00:45:16.132Z,7.05
2023-11-25T00:48:04.366Z,4.22
2023-11-25T00:50:52.309Z,13.02
2023-11-25T00:53:40.464Z,6.80
2023-11-25T00:56:29.782Z,5.65
2023-11-25T00:59:17.623Z,7.25
2023-11-25T01:02:06.851Z,7.43
2023-11-25T01:04:54.790Z,5.13
2023-11-25T01:07:42.863Z,6.63
2023-11-25T01:10:30.746Z,5.25
2023-11-25T01:13:20.003Z,6.75
2023-11-25T01:16:17.979Z,9.98
2023-11-25T01:19:06.219Z,4.47
2023-11-25T01:21:54.126Z,10.75
2023-11-25T01:24:42.138Z,8.45
2023-11-25T01:27:30.096Z,6.65
2023-11-25T01:30:21.236Z,7.78
2023-11-25T01:33:09.933Z,4.85
2023-11-25T01:35:58.154Z,7.30
2023-11-25T01:38:46.139Z,4.85
2023-11-25T01:41:34.130Z,5.30
2023-11-25T01:44:23.465Z,5.05
2023-11-25T01:47:14.050Z,5.65
2023-11-25T01:50:03.893Z,5.90
2023-11-25T01:52:54.614Z,6.22
2023-11-25T01:55:43.156Z,4.07
2023-11-25T01:58:32.194Z,5.72
2023-11-25T02:01:21.539Z,6.63
2023-11-25T02:04:11.632Z,5.85
2023-11-25T02:07:00.017Z,6.88
2023-11-25T02:09:47.932Z,5.65
2023-11-25T02:12:39.295Z,5.82
2023-11-25T02:15:27.302Z,4.97
2023-11-25T02:18:17.951Z,6.40
2023-11-25T02:21:08.485Z,7.30
2023-11-25T02:23:57.723Z,9.05
2023-11-25T02:26:45.795Z,5.75
2023-11-25T02:29:34.290Z,11.30
2023-11-25T02:32:22.556Z,8.82
2023-11-25T02:35:10.956Z,7.15
2023-11-25T02:37:59.813Z,2.92
2023-11-25T02:40:50.362Z,5.68
2023-11-25T02:43:38.330Z,4.53
2023-11-25T02:46:26.185Z,4.47
2023-11-25T02:49:14.174Z,5.38
2023-11-25T02:52:02.434Z,6.30
2023-11-25T02:54:50.816Z,4.85
2023-11-25T02:57:44.525Z,3.97
2023-11-25T03:00:38.024Z,9.23
2023-11-25T03:03:26.141Z,3.90
2023-11-25T03:06:14.365Z,3.00
2023-11-25T03:09:02.549Z,7.53
2023-11-25T03:11:50.649Z,3.28
2023-11-25T03:14:39.935Z,4.22
2023-11-25T03:17:29.445Z,7.88
2023-11-25T03:20:18.022Z,5.88
2023-11-25T03:23:05.958Z,3.47
2023-11-25T03:25:54.218Z,6.00
2023-11-25T03:28:42.606Z,5.75
2023-11-25T03:31:32.158Z,7.18
2023-11-25T03:34:20.270Z,4.47
2023-11-25T03:37:09.812Z,7.55
2023-11-25T03:39:57.891Z,3.92
2023-11-25T03:42:46.140Z,6.15
2023-11-25T03:45:34.310Z,7.30
2023-11-25T03:48:23.661Z,4.75
2023-11-25T03:51:12.791Z,5.90
2023-11-25T03:54:00.668Z,5.85
2023-11-25T03:56:48.770Z,3.67
2023-11-25T03:59:36.802Z,5.47
2023-11-25T04:02:24.959Z,7.25
2023-11-25T04:05:15.050Z,6.75
2023-11-25T04:08:02.977Z,8.88
2023-11-25T04:10:52.303Z,9.88
2023-11-25T04:13:40.291Z,8.68
2023-11-25T04:16:28.261Z,3.90
2023-11-25T04:19:17.401Z,4.30
2023-11-25T04:22:07.121Z,2.70
2023-11-25T04:24:55.107Z,6.90
2023-11-25T04:27:43.351Z,4.72
2023-11-25T04:30:31.475Z,4.07
2023-11-25T04:33:19.824Z,9.82
2023-11-25T04:36:09.255Z,7.70
2023-11-25T04:39:00.392Z,11.93
2023-11-25T04:41:49.455Z,6.93
2023-11-25T04:44:38.779Z,7.18
2023-11-25T04:47:27.654Z,3.92
2023-11-25T04:50:16.555Z,3.30
2023-11-25T04:53:04.746Z,3.90
2023-11-25T04:55:54.354Z,3.17
2023-11-25T04:58:42.884Z,8.98
2023-11-25T05:01:31.372Z,5.90
2023-11-25T05:04:19.554Z,5.38
2023-11-25T05:07:07.522Z,6.03
2023-11-25T05:09:55.485Z,6.28
2023-11-25T05:12:46.167Z,9.27
2023-11-25T05:15:34.511Z,7.55
2023-11-25T05:18:23.038Z,10.55
2023-11-25T05:21:11.967Z,7.95
2023-11-25T05:23:59.847Z,6.90
2023-11-25T05:26:47.786Z,12.90
2023-11-25T05:29:37.132Z,6.80
2023-11-25T05:32:25.433Z,13.88
2023-11-25T05:35:14.392Z,8.80
2023-11-25T05:38:02.606Z,5.22
2023-11-25T05:40:50.616Z,8.43
2023-11-25T05:43:40.477Z,13.10
2023-11-25T05:46:30.197Z,5.85
2023-11-25T05:49:18.561Z,9.32
2023-11-25T05:52:06.897Z,8.75
2023-11-25T05:54:56.943Z,9.43
2023-11-25T05:57:45.773Z,7.90
2023-11-25T06:00:33.787Z,12.50
2023-11-25T06:03:24.555Z,7.55
2023-11-25T06:06:14.069Z,7.30
2023-11-25T06:09:02.081Z,11.15
2023-11-25T06:11:52.396Z,8.75
2023-11-25T06:14:40.362Z,14.55
2023-11-25T06:17:28.594Z,10.30
2023-11-25T06:20:18.408Z,8.05
2023-11-25T06:23:06.367Z,20.90
2023-11-25T06:25:54.605Z,8.23
2023-11-25T06:28:44.026Z,11.40
2023-11-25T06:31:32.992Z,7.78
2023-11-25T06:34:21.238Z,13.40
2023-11-25T06:37:11.004Z,11.45
2023-11-25T06:39:59.142Z,10.15
2023-11-25T06:42:47.102Z,8.38
2023-11-25T06:45:35.898Z,13.73
2023-11-25T06:48:25.160Z,13.93
2023-11-25T06:51:13.451Z,9.80
2023-11-25T06:54:02.875Z,13.20
2023-11-25T06:56:56.342Z,11.25
2023-11-25T06:59:46.893Z,20.17
2023-11-25T07:02:35.094Z,20.55
2023-11-25T07:05:23.338Z,16.52
2023-11-25T07:08:11.984Z,16.35
2023-11-25T07:11:06.225Z,14.40
2023-11-25T07:13:55.366Z,16.65
2023-11-25T07:16:43.529Z,12.65
2023-11-25T07:19:31.631Z,8.35
2023-11-25T07:22:21.152Z,13.95
2023-11-25T07:25:13.255Z,9.43
2023-11-25T07:28:02.677Z,9.38
2023-11-25T07:30:51.008Z,11.18
2023-11-25T07:33:39.514Z,15.98
2023-11-25T07:36:27.537Z,14.35
2023-11-25T07:39:20.903Z,13.40
2023-11-25T07:42:09.633Z,8.40
2023-11-25T07:44:59.126Z,11.18
2023-11-25T07:47:47.618Z,12.23
2023-11-25T07:50:36.291Z,5.65
2023-11-25T07:53:24.702Z,13.30
2023-11-25T07:56:12.735Z,10.68
2023-11-25T07:59:03.082Z,11.20
2023-11-25T08:01:54.524Z,12.50
2023-11-25T08:04:42.842Z,13.80
2023-11-25T08:07:30.847Z,8.85
2023-11-25T08:10:19.260Z,8.98
2023-11-25T08:13:07.199Z,10.15
2023-11-25T08:15:56.590Z,9.05
2023-11-25T08:18:47.280Z,6.88
2023-11-25T08:21:35.267Z,10.02
2023-11-25T08:24:24.402Z,9.95
2023-11-25T08:27:12.449Z,14.65
2023-11-25T08:30:00.355Z,8.23
2023-11-25T08:32:48.833Z,13.43
2023-11-25T08:35:39.982Z,7.43
2023-11-25T08:38:28.358Z,8.20
2023-11-25T08:41:18.109Z,8.30
2023-11-25T08:44:07.893Z,11.98
2023-11-25T08:46:58.028Z,6.07
2023-11-25T08:49:46.782Z,12.63
2023-11-25T08:52:40.243Z,7.15
2023-11-25T08:55:28.492Z,9.05
2023-11-25T08:58:16.294Z,11.77
2023-11-25T09:01:06.063Z,8.25
2023-11-25T09:03:53.975Z,9.52
2023-11-25T09:06:42.417Z,15.55
2023-11-25T09:09:31.810Z,11.25
2023-11-25T09:12:20.813Z,12.77
2023-11-25T09:15:10.250Z,11.63
2023-11-25T09:17:58.268Z,22.63
2023-11-25T09:20:46.380Z,21.23
2023-11-25T09:23:35.039Z,22.73
2023-11-25T09:26:25.806Z,17.58
2023-11-25T09:29:13.670Z,19.02
2023-11-25T09:32:01.699Z,26.20
2023-11-25T09:34:52.040Z,29.75
2023-11-25T09:37:40.239Z,30.35
2023-11-25T09:40:30.694Z,22.25
2023-11-25T09:43:22.474Z,29.27
2023-11-25T09:46:10.749Z,26.30
2023-11-25T09:48:58.681Z,31.88
2023-11-25T09:51:48.985Z,26.60
2023-11-25T09:54:37.514Z,31.20
2023-11-25T09:57:33.430Z,26.67
2023-11-25T10:00:23.635Z,34.63
2023-11-25T10:03:15.162Z,36.28
2023-11-25T10:06:03.666Z,37.17
2023-11-25T10:08:51.834Z,35.50
2023-11-25T10:11:43.979Z,47.22
2023-11-25T10:14:32.636Z,48.72
2023-11-25T10:17:23.135Z,39.28
2023-11-25T10:20:11.735Z,40.97
2023-11-25T10:22:59.884Z,43.25
2023-11-25T10:25:48.128Z,38.35
2023-11-25T10:28:37.667Z,40.75
2023-11-25T10:31:28.927Z,42.05
2023-11-25T10:34:18.408Z,41.88
2023-11-25T10:37:07.179Z,42.03
2023-11-25T10:39:55.397Z,39.17
2023-11-25T10:42:44.404Z,44.63
2023-11-25T10:45:33.548Z,45.63
2023-11-25T10:48:22.026Z,40.97
2023-11-25T10:51:12.636Z,26.70
2023-11-25T10:54:01.668Z,12.32
2023-11-25T10:56:50.356Z,18.98
2023-11-25T10:59:41.191Z,10.52
2023-11-25T11:02:33.499Z,9.55
2023-11-25T11:05:29.769Z,7.72
2023-11-25T11:08:26.929Z,12.45
2023-11-25T11:11:18.843Z,9.02
2023-11-25T11:14:14.069Z,8.57
2023-11-25T11:17:11.011Z,7.25
2023-11-25T11:20:01.616Z,8.23
2023-11-25T11:22:50.355Z,10.25
2023-11-25T11:25:49.087Z,7.43
2023-11-25T11:28:45.202Z,6.80
2023-11-25T11:32:08.720Z,7.82
2023-11-25T11:34:57.733Z,6.15
2023-11-25T11:37:50.120Z,12.63
2023-11-25T11:40:39.747Z,6.00
2023-11-25T11:43:30.124Z,4.68
2023-11-25T11:46:18.117Z,3.65
2023-11-25T11:49:07.728Z,3.50
2023-11-25T11:52:02.656Z,6.13
2023-11-25T11:54:50.824Z,5.30
2023-11-25T11:58:04.776Z,5.60
2023-11-25T12:00:56.630Z,4.72
2023-11-25T12:03:44.832Z,5.57
2023-11-25T12:06:32.954Z,4.30
2023-11-25T12:09:20.995Z,4.95
2023-11-25T12:12:09.391Z,4.22
2023-11-25T12:14:58.797Z,5.38
2023-11-25T12:17:47.113Z,4.15
2023-11-25T12:20:35.280Z,4.25
2023-11-25T12:23:28.278Z,6.03
2023-11-25T12:26:24.447Z,7.15
2023-11-25T12:29:13.082Z,6.53
2023-11-25T12:32:03.057Z,5.28
2023-11-25T12:34:50.851Z,4.45
2023-11-25T12:37:38.778Z,5.47
2023-11-25T12:40:28.211Z,5.78
2023-11-25T12:43:16.131Z,5.20
2023-11-25T12:46:11.842Z,4.22
2023-11-25T12:49:08.857Z,5.35
2023-11-25T12:51:57.955Z,4.32
2023-11-25T12:54:46.733Z,6.25
2023-11-25T12:57:35.033Z,2.47
2023-11-25T13:00:23.892Z,3.95
2023-11-25T13:03:12.074Z,2.17
2023-11-25T13:06:02.191Z,6.35
2023-11-25T13:08:50.641Z,3.67
2023-11-25T13:11:38.544Z,3.22
2023-11-25T13:14:26.748Z,5.60
2023-11-25T13:17:14.727Z,2.88
2023-11-25T13:20:02.837Z,3.17
2023-11-25T13:22:52.222Z,3.00
2023-11-25T13:25:40.502Z,3.88
2023-11-25T13:28:28.750Z,3.97
2023-11-25T13:31:16.753Z,4.45
2023-11-25T13:34:07.444Z,4.03
2023-11-25T13:36:55.324Z,4.70
2023-11-25T13:39:45.133Z,8.77
2023-11-25T13:42:34.332Z,6.60
2023-11-25T13:45:22.200Z,6.22
2023-11-25T13:48:11.867Z,9.27
2023-11-25T13:50:59.788Z,4.95
2023-11-25T13:53:47.897Z,4.72
2023-11-25T13:56:37.126Z,7.60
2023-11-25T13:59:25.171Z,5.13
2023-11-25T14:02:13.269Z,7.05
2023-11-25T14:05:01.331Z,10.63
2023-11-25T14:07:50.501Z,7.93
2023-11-25T14:10:39.592Z,7.05
2023-11-25T14:13:32.159Z,6.07
2023-11-25T14:16:20.554Z,5.82
2023-11-25T14:19:08.653Z,7.95
2023-11-25T14:21:56.797Z,8.40
2023-11-25T14:24:44.776Z,6.80
2023-11-25T14:27:35.207Z,9.20
2023-11-25T14:30:29.740Z,7.85
2023-11-25T14:33:17.854Z,15.60
2023-11-25T14:36:06.563Z,8.98
2023-11-25T14:38:54.591Z,9.57
2023-11-25T14:41:42.507Z,9.93
2023-11-25T14:44:30.613Z,12.10
2023-11-25T14:47:20.203Z,7.10
2023-11-25T14:50:12.294Z,8.95
2023-11-25T14:53:01.043Z,16.00
2023-11-25T14:55:51.578Z,19.30
2023-11-25T14:58:39.699Z,19.27
2023-11-25T15:01:27.961Z,26.48
2023-11-25T15:04:17.710Z,45.22
2023-11-25T15:07:06.131Z,28.50
2023-11-25T15:09:54.445Z,44.55
2023-11-25T15:12:42.304Z,32.03
2023-11-25T15:15:30.448Z,30.23
2023-11-25T15:18:18.541Z,34.03
2023-11-25T15:21:08.826Z,39.03
2023-11-25T15:23:57.480Z,26.77
2023-11-25T15:26:45.340Z,21.33
2023-11-25T15:29:33.550Z,15.02
2023-11-25T15:32:21.527Z,17.13
2023-11-25T15:35:10.576Z,15.48
2023-11-25T15:37:59.903Z,14.15
2023-11-25T15:40:48.314Z,13.10
2023-11-25T15:43:37.664Z,12.13
2023-11-25T15:46:25.826Z,8.82
2023-11-25T15:49:14.088Z,18.58
2023-11-25T15:52:02.054Z,24.92
2023-11-25T15:54:51.817Z,21.80
2023-11-25T15:57:39.976Z,25.60
2023-11-25T16:00:28.641Z,17.77
2023-11-25T16:03:17.967Z,14.82
2023-11-25T16:06:07.161Z,11.07
2023-11-25T16:08:55.154Z,7.28
2023-11-25T16:11:44.407Z,11.18
2023-11-25T16:14:32.446Z,11.88
2023-11-25T16:17:21.821Z,12.63
2023-11-25T16:20:11.383Z,13.70
2023-11-25T16:23:00.143Z,18.77
2023-11-25T16:25:48.230Z,11.77
2023-11-25T16:28:38.126Z,11.95
2023-11-25T16:31:26.304Z,11.55
2023-11-25T16:34:14.459Z,9.48
2023-11-25T16:37:02.687Z,10.60
2023-11-25T16:39:50.620Z,21.50
2023-11-25T16:42:38.953Z,21.83
2023-11-25T16:45:28.317Z,17.58
2023-11-25T16:48:16.254Z,12.82
2023-11-25T16:51:05.349Z,18.75
2023-11-25T16:53:53.405Z,18.38
2023-11-25T16:56:41.500Z,22.33
2023-11-25T16:59:29.668Z,14.75
2023-11-25T17:02:19.602Z,15.27
2023-11-25T17:05:09.315Z,20.38
2023-11-25T17:07:57.393Z,16.02
2023-11-25T17:10:46.182Z,15.68
2023-11-25T17:13:34.290Z,17.23
2023-11-25T17:16:26.905Z,23.58
2023-11-25T17:19:16.378Z,31.63
2023-11-25T17:22:05.165Z,48.00
2023-11-25T17:24:53.448Z,46.35
2023-11-25T17:27:41.405Z,36.55
2023-11-25T17:30:30.129Z,29.88
2023-11-25T17:33:18.272Z,33.45
2023-11-25T17:36:08.414Z,33.08
2023-11-25T17:38:56.290Z,33.08
2023-11-25T17:41:45.046Z,25.48
2023-11-25T17:44:34.133Z,17.77
2023-11-25T17:47:22.861Z,15.25
2023-11-25T17:50:12.903Z,13.75
2023-11-25T17:53:09.708Z,16.73
2023-11-25T17:56:03.001Z,14.65
2023-11-25T17:58:51.422Z,13.70
2023-11-25T18:01:39.840Z,9.60
2023-11-25T18:04:28.001Z,12.88
2023-11-25T18:07:16.343Z,9.63
2023-11-25T18:10:07.242Z,10.10
2023-11-25T18:12:56.345Z,6.90
2023-11-25T18:15:46.064Z,9.63
2023-11-25T18:18:34.407Z,10.93
2023-11-25T18:21:22.563Z,8.43
2023-11-25T18:24:11.263Z,11.57
2023-11-25T18:27:00.756Z,7.80
2023-11-25T18:29:48.920Z,8.60
2023-11-25T18:32:37.739Z,9.60
2023-11-25T18:35:26.390Z,13.57
2023-11-25T18:38:15.050Z,9.95
2023-11-25T18:41:07.642Z,7.40
2023-11-25T18:43:57.226Z,6.78
2023-11-25T18:46:47.759Z,9.27
2023-11-25T18:49:36.088Z,9.00
2023-11-25T18:52:25.403Z,6.75
2023-11-25T18:55:13.794Z,9.10
2023-11-25T18:58:01.917Z,8.70
2023-11-25T19:00:51.975Z,10.27
2023-11-25T19:03:40.360Z,6.80
2023-11-25T19:06:29.423Z,3.97
2023-11-25T19:09:18.757Z,6.55
2023-11-25T19:12:12.222Z,12.88
2023-11-25T19:15:00.833Z,24.00
2023-11-25T19:17:50.756Z,24.83
2023-11-25T19:20:39.523Z,14.68
2023-11-25T19:23:27.967Z,7.65
2023-11-25T19:26:16.809Z,6.53
2023-11-25T19:29:05.536Z,3.60
2023-11-25T19:31:55.327Z,4.63
2023-11-25T19:34:45.307Z,2.63
2023-11-25T19:37:33.667Z,4.68
2023-11-25T19:40:24.824Z,7.78
2023-11-25T19:43:13.183Z,2.67
2023-11-25T19:46:01.684Z,3.20
2023-11-25T19:48:50.214Z,2.25
2023-11-25T19:51:39.904Z,3.90
2023-11-25T19:54:28.202Z,3.33
2023-11-25T19:57:16.623Z,5.18
2023-11-25T20:00:06.458Z,3.78
2023-11-25T20:02:55.017Z,4.00
2023-11-25T20:05:43.394Z,5.30
2023-11-25T20:08:33.229Z,4.60
2023-11-25T20:11:21.313Z,7.55
2023-11-25T20:14:09.644Z,3.33
2023-11-25T20:16:58.636Z,2.03
2023-11-25T20:19:50.176Z,2.88
2023-11-25T20:22:38.455Z,3.80
2023-11-25T20:25:28.027Z,2.08
2023-11-25T20:28:16.035Z,1.50
2023-11-25T20:31:04.431Z,1.55
2023-11-25T20:33:52.993Z,2.55
2023-11-25T20:36:41.233Z,1.08
2023-11-25T20:39:29.779Z,1.58
2023-11-25T20:42:20.018Z,2.42
2023-11-25T20:45:09.197Z,4.68
2023-11-25T20:47:57.275Z,1.63
2023-11-25T20:50:45.317Z,1.35
2023-11-25T20:53:33.264Z,2.65
2023-11-25T20:56:21.495Z,1.65
2023-11-25T20:59:10.901Z,2.45
2023-11-25T21:01:59.092Z,1.52
2023-11-25T21:04:47.384Z,2.80
2023-11-25T21:07:35.266Z,3.95
2023-11-25T21:10:23.268Z,1.70
2023-11-25T21:13:11.360Z,1.77
2023-11-25T21:16:01.313Z,1.25
2023-11-25T21:18:49.221Z,1.23
2023-11-25T21:21:37.400Z,1.73
2023-11-25T21:24:25.465Z,1.60
2023-11-25T21:27:13.264Z,2.92
2023-11-25T21:30:01.143Z,2.00
2023-11-25T21:32:50.987Z,0.80
2023-11-25T21:35:39.272Z,1.08
2023-11-25T21:38:31.358Z,1.48
2023-11-25T21:41:19.221Z,0.95
2023-11-25T21:44:07.558Z,0.95
2023-11-25T21:46:55.940Z,0.50
2023-11-25T21:49:45.464Z,1.13
2023-11-25T21:52:36.296Z,0.63
2023-11-25T21:55:25.552Z,1.05
2023-11-25T21:58:15.882Z,1.13
2023-11-25T22:01:05.271Z,1.73
2023-11-25T22:03:53.442Z,2.17
2023-11-25T22:06:42.909Z,1.83
2023-11-25T22:09:31.834Z,0.60
2023-11-25T22:12:19.754Z,0.57
2023-11-25T22:15:08.661Z,0.47
2023-11-25T22:17:56.776Z,0.32
2023-11-25T22:20:44.734Z,1.30
2023-11-25T22:23:34.477Z,1.15
2023-11-25T22:26:32.986Z,1.63
2023-11-25T22:29:21.554Z,1.35
2023-11-25T22:32:10.753Z,0.40
2023-11-25T22:34:58.744Z,0.93
2023-11-25T22:37:46.907Z,0.65
2023-11-25T22:40:36.293Z,3.13
2023-11-25T22:43:24.373Z,0.85
2023-11-25T22:46:12.418Z,1.35
2023-11-25T22:49:00.600Z,0.75
2023-11-25T22:51:49.001Z,0.65
2023-11-25T22:54:37.288Z,1.25
2023-11-25T22:57:27.851Z,1.05
2023-11-25T23:00:29.141Z,0.43
2023-11-25T23:03:17.377Z,0.60
2023-11-25T23:06:09.580Z,0.20
2023-11-25T23:08:57.475Z,2.35
2023-11-25T23:11:45.789Z,0.25
2023-11-25T23:14:35.350Z,0.40
2023-11-25T23:17:23.227Z,0.30
2023-11-25T23:20:12.813Z,1.13
2023-11-25T23:23:00.880Z,0.90
2023-11-25T23:25:49.769Z,1.70
2023-11-25T23:28:38.016Z,0.65
2023-11-25T23:31:28.079Z,1.23
2023-11-25T23:34:16.235Z,2.45
2023-11-25T23:37:04.056Z,2.03
2023-11-25T23:39:52.025Z,0.52
2023-11-25T23:42:40.479Z,0.68
2023-11-25T23:45:28.556Z,1.08
2023-11-25T23:48:18.802Z,1.77
2023-11-25T23:51:08.042Z,0.65
2023-11-25T23:53:56.172Z,0.40
2023-11-25T23:56:44.484Z,0.60
2023-11-25T23:59:32.542Z,1.25
